Time;durP1;ratioP1;P1;durP2;ratioP2;P2;SDS_P1;SDS_P2;PMS_P1;PMS_P2;Temp;Humidity;BMP_temperature;BMP_pressure;BME280_temperature;BME280_humidity;BME280_pressure;Samples;Min_cycle;Max_cycle;Signal;HPM_P1;HPM_P2
2023/05/22 00:02:04;;;;;;;17.95;13.77;;;19.30;99.90;;;;;;5060335;28;20535;-74
2023/05/22 00:04:30;;;;;;;18.80;13.00;;;19.20;99.90;;;;;;5061294;28;20036;-73
2023/05/22 00:06:56;;;;;;;19.30;13.13;;;19.20;99.90;;;;;;5058256;28;20033;-73
2023/05/22 00:09:24;;;;;;;15.73;12.77;;;19.20;99.90;;;;;;5060143;28;20588;-73
2023/05/22 00:11:50;;;;;;;17.48;12.85;;;19.20;99.90;;;;;;5061511;28;20485;-72
2023/05/22 00:14:16;;;;;;;18.70;13.50;;;19.20;99.90;;;;;;5064176;28;20111;-72
2023/05/22 00:16:41;;;;;;;17.60;13.27;;;19.10;99.90;;;;;;5064420;28;20471;-73
2023/05/22 00:19:15;;;;;;;18.85;13.00;;;19.10;99.90;;;;;;5064688;28;20025;-73
2023/05/22 00:21:41;;;;;;;18.30;12.60;;;19.10;99.90;;;;;;5064540;28;20055;-73
2023/05/22 00:24:08;;;;;;;19.88;13.32;;;19.10;99.90;;;;;;5063737;28;20116;-72
2023/05/22 00:26:33;;;;;;;19.33;12.43;;;19.00;99.90;;;;;;5064516;28;20079;-73
2023/05/22 00:28:59;;;;;;;15.57;12.32;;;19.10;99.90;;;;;;5064754;28;20028;-72
2023/05/22 00:31:25;;;;;;;18.73;12.93;;;19.00;99.90;;;;;;5063801;28;20032;-73
2023/05/22 00:33:50;;;;;;;16.83;12.60;;;19.00;99.90;;;;;;5063230;28;20032;-73
2023/05/22 00:36:17;;;;;;;18.60;12.50;;;19.00;99.90;;;;;;5064321;28;20041;-73
2023/05/22 00:38:43;;;;;;;20.40;13.10;;;19.00;99.90;;;;;;5062476;28;20021;-72
2023/05/22 00:41:08;;;;;;;18.33;13.93;;;19.00;99.90;;;;;;5064077;28;20029;-72
2023/05/22 00:43:34;;;;;;;16.65;12.73;;;19.00;99.90;;;;;;5064074;28;20088;-72
2023/05/22 00:46:00;;;;;;;17.92;12.73;;;19.00;99.90;;;;;;5061229;28;20029;-73
2023/05/22 00:48:26;;;;;;;15.57;11.88;;;18.90;99.90;;;;;;5064415;28;20029;-73
2023/05/22 00:50:55;;;;;;;17.25;12.52;;;18.80;99.90;;;;;;5064219;28;20053;-73
2023/05/22 00:53:23;;;;;;;17.95;12.68;;;18.80;99.90;;;;;;5063999;28;20040;-72
2023/05/22 00:55:50;;;;;;;17.05;12.77;;;18.80;99.90;;;;;;5063668;28;20033;-72
2023/05/22 00:58:19;;;;;;;18.35;13.20;;;18.80;99.90;;;;;;5063962;28;20029;-72
2023/05/22 01:00:45;;;;;;;21.67;12.48;;;18.70;99.90;;;;;;5063687;28;20051;-72
2023/05/22 01:03:11;;;;;;;17.92;12.98;;;18.70;99.90;;;;;;5063492;28;20013;-72
2023/05/22 01:05:38;;;;;;;19.33;14.00;;;18.70;99.90;;;;;;5063778;28;20025;-72
2023/05/22 01:08:08;;;;;;;18.40;13.50;;;18.60;99.90;;;;;;5062992;28;20108;-73
2023/05/22 01:10:39;;;;;;;17.63;13.65;;;18.50;99.90;;;;;;5061890;28;20067;-72
2023/05/22 01:13:07;;;;;;;19.08;14.02;;;18.50;99.90;;;;;;5063063;28;20028;-72
2023/05/22 01:15:55;;;;;;;23.02;14.52;;;18.40;99.90;;;;;;5062223;28;20358;-72
2023/05/22 01:18:39;;;;;;;18.38;13.75;;;18.40;99.90;;;;;;5063235;28;20048;-72
2023/05/22 01:21:21;;;;;;;17.65;13.95;;;18.40;99.90;;;;;;5061742;28;20087;-71
2023/05/22 01:24:19;;;;;;;20.15;15.18;;;18.30;99.90;;;;;;5062662;28;20021;-72
2023/05/22 01:27:03;;;;;;;22.27;14.95;;;18.20;99.90;;;;;;5063464;28;20070;-72
2023/05/22 01:29:54;;;;;;;18.63;14.40;;;18.20;99.90;;;;;;5063276;28;20027;-72
2023/05/22 01:32:24;;;;;;;22.27;15.75;;;18.20;99.90;;;;;;5061769;28;20476;-73
2023/05/22 01:34:58;;;;;;;19.08;14.88;;;18.20;99.90;;;;;;5062708;28;20067;-73
2023/05/22 01:37:24;;;;;;;;;;;18.10;99.90;;;;;;5059563;28;20025;-72
2023/05/22 01:39:51;;;;;;;19.88;16.42;;;18.00;99.90;;;;;;5062878;28;19967;-73
2023/05/22 01:42:18;;;;;;;24.05;16.02;;;18.00;99.90;;;;;;5062964;28;20055;-73
2023/05/22 01:44:43;;;;;;;24.20;16.50;;;17.90;99.90;;;;;;5061897;28;20052;-72
2023/05/22 01:47:09;;;;;;;24.35;16.02;;;17.90;99.90;;;;;;5063061;28;20028;-73
2023/05/22 01:49:35;;;;;;;21.65;16.20;;;17.90;99.90;;;;;;5061116;28;20112;-72
2023/05/22 01:52:08;;;;;;;19.48;15.60;;;17.90;99.90;;;;;;5062090;28;20044;-72
2023/05/22 01:54:57;;;;;;;24.63;16.85;;;17.80;99.90;;;;;;5062986;28;20048;-72
2023/05/22 01:57:36;;;;;;;20.77;15.65;;;17.80;99.90;;;;;;5062610;28;20025;-72
2023/05/22 02:00:10;;;;;;;21.95;16.38;;;17.80;99.90;;;;;;5062749;28;20028;-72
2023/05/22 02:02:38;;;;;;;22.73;17.05;;;17.70;99.90;;;;;;5061869;28;20017;-73
2023/05/22 02:05:04;;;;;;;26.30;16.70;;;17.70;99.90;;;;;;5061225;28;20025;-72
2023/05/22 02:07:32;;;;;;;20.85;16.23;;;17.70;99.90;;;;;;5062134;28;20025;-73
2023/05/22 02:09:59;;;;;;;22.27;16.25;;;17.70;99.90;;;;;;5061992;28;20025;-73
2023/05/22 02:12:26;;;;;;;22.85;17.08;;;17.70;99.90;;;;;;5062154;28;20480;-72
2023/05/22 02:14:52;;;;;;;22.85;16.77;;;17.60;99.90;;;;;;5062052;28;20132;-72
2023/05/22 02:17:19;;;;;;;21.25;16.85;;;17.60;99.90;;;;;;5062395;28;20021;-72
2023/05/22 02:19:44;;;;;;;21.00;16.88;;;17.60;99.90;;;;;;5060602;28;20021;-72
2023/05/22 02:22:12;;;;;;;23.50;16.60;;;17.60;99.90;;;;;;5062272;28;20521;-72
2023/05/22 02:24:40;;;;;;;22.60;16.40;;;17.50;99.90;;;;;;5060246;28;20094;-72
2023/05/22 02:27:06;;;;;;;24.13;16.13;;;17.50;99.90;;;;;;5061618;28;20052;-72
2023/05/22 02:29:31;;;;;;;22.52;16.38;;;17.50;99.90;;;;;;5061066;28;20037;-72
2023/05/22 02:31:57;;;;;;;23.15;15.85;;;17.50;99.90;;;;;;5061472;28;20052;-73
2023/05/22 02:34:23;;;;;;;24.67;15.82;;;17.50;99.90;;;;;;5061062;28;20037;-72
2023/05/22 02:36:49;;;;;;;22.98;15.70;;;17.50;99.90;;;;;;5062311;28;20064;-72
2023/05/22 02:39:16;;;;;;;20.88;15.85;;;17.40;99.90;;;;;;5060973;28;20028;-72
2023/05/22 02:41:42;;;;;;;19.23;15.95;;;17.50;99.90;;;;;;5061953;28;20032;-72
2023/05/22 02:44:07;;;;;;;24.73;15.80;;;17.50;99.90;;;;;;5060550;28;20092;-72
2023/05/22 02:46:33;;;;;;;20.38;15.43;;;17.50;99.90;;;;;;5060794;28;20024;-72
2023/05/22 02:48:59;;;;;;;19.42;14.68;;;17.40;99.90;;;;;;5061799;28;20024;-74
2023/05/22 02:51:24;;;;;;;23.67;16.17;;;17.40;99.90;;;;;;5060554;28;20486;-73
2023/05/22 02:53:51;;;;;;;19.08;15.32;;;17.40;99.90;;;;;;5061355;28;20162;-72
2023/05/22 02:56:17;;;;;;;19.08;14.70;;;17.40;99.90;;;;;;5061246;28;20053;-71
2023/05/22 02:58:43;;;;;;;19.85;14.70;;;17.40;99.90;;;;;;5060464;28;20029;-72
2023/05/22 03:01:09;;;;;;;22.60;15.73;;;17.40;99.90;;;;;;5060956;28;20101;-73
2023/05/22 03:03:35;;;;;;;22.75;15.57;;;17.30;99.90;;;;;;5060665;28;20052;-71
2023/05/22 03:06:03;;;;;;;20.50;14.98;;;17.30;99.90;;;;;;5060882;28;20029;-72
2023/05/22 03:08:30;;;;;;;24.05;15.18;;;17.20;99.90;;;;;;5061206;28;20021;-72
2023/05/22 03:10:56;;;;;;;21.67;15.60;;;17.30;99.90;;;;;;5061736;28;20021;-72
2023/05/22 03:13:22;;;;;;;19.90;15.20;;;17.40;99.90;;;;;;5060071;28;20034;-73
2023/05/22 03:15:48;;;;;;;20.10;14.00;;;17.30;99.90;;;;;;5060995;28;20589;-74
2023/05/22 03:18:13;;;;;;;21.45;15.48;;;17.30;99.90;;;;;;5061736;28;20032;-73
2023/05/22 03:20:39;;;;;;;21.30;15.13;;;17.30;99.90;;;;;;5061414;28;20104;-71
2023/05/22 03:23:05;;;;;;;20.10;15.35;;;17.20;99.90;;;;;;5061197;28;20047;-72
2023/05/22 03:25:31;;;;;;;22.90;14.95;;;17.20;99.90;;;;;;5061111;28;20489;-72
2023/05/22 03:27:56;;;;;;;19.60;15.02;;;17.20;99.90;;;;;;5061013;28;20025;-72
2023/05/22 03:30:22;;;;;;;24.20;14.32;;;17.20;99.90;;;;;;5060496;28;20415;-72
2023/05/22 03:32:47;;;;;;;19.15;13.82;;;17.20;99.90;;;;;;5061277;28;20030;-72
2023/05/22 03:35:18;;;;;;;22.73;14.40;;;17.20;99.90;;;;;;5059627;28;20031;-72
2023/05/22 03:37:45;;;;;;;23.48;14.90;;;17.20;99.90;;;;;;5059610;28;20036;-71
2023/05/22 03:40:11;;;;;;;20.98;13.38;;;17.20;99.90;;;;;;5061311;28;20039;-72
2023/05/22 03:42:37;;;;;;;18.92;14.02;;;17.20;99.90;;;;;;5059703;28;20549;-72
2023/05/22 03:45:03;;;;;;;16.92;13.82;;;17.20;99.90;;;;;;5059447;28;20071;-72
2023/05/22 03:47:28;;;;;;;16.42;13.20;;;17.20;99.90;;;;;;5062745;28;20041;-73
2023/05/22 03:49:54;;;;;;;19.98;13.82;;;17.20;99.90;;;;;;5063610;28;20045;-72
2023/05/22 03:52:21;;;;;;;23.20;14.32;;;17.20;99.90;;;;;;5064028;28;20028;-73
2023/05/22 03:54:46;;;;;;;19.65;13.63;;;17.30;99.90;;;;;;5062569;28;20040;-72
2023/05/22 03:57:12;;;;;;;21.35;13.50;;;17.20;99.90;;;;;;5063430;28;20029;-72
2023/05/22 03:59:38;;;;;;;17.58;13.32;;;17.20;99.90;;;;;;5064974;28;20027;-73
2023/05/22 04:02:04;;;;;;;17.05;13.45;;;17.20;99.90;;;;;;5063566;28;20081;-72
2023/05/22 04:04:37;;;;;;;17.63;13.30;;;17.20;99.90;;;;;;5063222;28;20075;-73
2023/05/22 04:07:06;;;;;;;17.27;13.52;;;17.30;99.90;;;;;;5063791;28;20025;-73
2023/05/22 04:09:34;;;;;;;19.58;13.60;;;17.30;99.90;;;;;;5064547;28;20462;-73
2023/05/22 04:12:01;;;;;;;17.85;13.02;;;17.40;99.90;;;;;;5064108;28;20037;-74
2023/05/22 04:14:27;;;;;;;18.27;13.13;;;17.20;99.90;;;;;;5064520;28;20044;-73
2023/05/22 04:16:53;;;;;;;16.50;12.60;;;17.30;99.90;;;;;;5062166;28;20028;-74
2023/05/22 04:19:19;;;;;;;19.00;13.35;;;17.30;99.90;;;;;;5063496;28;20029;-73
2023/05/22 04:21:46;;;;;;;18.55;13.13;;;17.30;99.90;;;;;;5064579;28;20031;-73
2023/05/22 04:24:11;;;;;;;17.33;12.80;;;17.30;99.90;;;;;;5064165;28;20049;-72
2023/05/22 04:26:38;;;;;;;19.85;13.70;;;17.30;99.90;;;;;;5062931;28;20025;-72
2023/05/22 04:29:05;;;;;;;17.25;12.13;;;17.30;99.90;;;;;;5064503;28;20017;-73
2023/05/22 04:31:31;;;;;;;17.75;13.00;;;17.20;99.90;;;;;;5063241;28;20029;-72
2023/05/22 04:33:58;;;;;;;18.35;13.15;;;17.40;99.90;;;;;;5063746;28;20013;-72
2023/05/22 04:36:28;;;;;;;21.30;12.60;;;17.30;99.90;;;;;;5064558;28;20029;-73
2023/05/22 04:38:54;;;;;;;19.08;12.85;;;17.30;99.90;;;;;;5062891;28;20032;-72
2023/05/22 04:41:21;;;;;;;20.90;12.70;;;17.30;99.90;;;;;;5064271;28;20021;-72
2023/05/22 04:43:47;;;;;;;18.73;12.68;;;17.40;99.90;;;;;;5063703;28;20533;-73
2023/05/22 04:46:14;;;;;;;17.35;12.80;;;17.40;99.90;;;;;;5063725;28;20083;-73
2023/05/22 04:48:40;;;;;;;17.63;12.23;;;17.40;99.90;;;;;;5063474;28;20021;-72
2023/05/22 04:51:06;;;;;;;20.10;12.95;;;17.40;99.90;;;;;;5064207;28;20045;-72
2023/05/22 04:53:32;;;;;;;19.52;12.98;;;17.40;99.90;;;;;;5063591;28;20040;-74
2023/05/22 04:55:58;;;;;;;15.13;12.65;;;17.50;99.90;;;;;;5064045;28;20025;-73
2023/05/22 04:58:27;;;;;;;16.23;12.32;;;17.50;99.90;;;;;;5062512;28;20029;-73
2023/05/22 05:00:53;;;;;;;17.02;12.13;;;17.50;99.90;;;;;;5062720;28;20028;-74
2023/05/22 05:03:21;;;;;;;16.67;12.18;;;17.60;99.90;;;;;;5063527;28;20030;-72
2023/05/22 05:05:47;;;;;;;18.48;12.65;;;17.60;99.90;;;;;;5063307;28;20071;-73
2023/05/22 05:08:12;;;;;;;22.33;12.25;;;17.60;99.90;;;;;;5063522;28;20025;-70
2023/05/22 05:10:38;;;;;;;18.50;12.45;;;17.60;99.90;;;;;;5062181;28;20527;-72
2023/05/22 05:13:04;;;;;;;14.77;11.85;;;17.60;99.90;;;;;;5063099;28;20073;-73
2023/05/22 05:15:29;;;;;;;17.17;12.18;;;17.60;99.90;;;;;;5061813;28;20037;-73
2023/05/22 05:17:55;;;;;;;15.55;11.88;;;17.60;99.90;;;;;;5062798;28;20060;-73
2023/05/22 05:20:21;;;;;;;16.42;12.07;;;17.80;99.90;;;;;;5061853;28;20032;-73
2023/05/22 05:22:46;;;;;;;17.50;12.15;;;17.90;99.90;;;;;;5059716;28;20025;-73
2023/05/22 05:25:12;;;;;;;16.25;12.10;;;17.80;99.90;;;;;;5057839;28;20029;-73
2023/05/22 05:27:38;;;;;;;16.17;11.52;;;17.80;99.90;;;;;;5061835;28;20029;-73
2023/05/22 05:30:05;;;;;;;15.38;11.50;;;17.90;99.90;;;;;;5062262;28;20025;-71
2023/05/22 05:32:30;;;;;;;18.35;11.32;;;17.90;99.90;;;;;;5061564;28;20025;-71
2023/05/22 05:34:56;;;;;;;17.27;10.73;;;17.90;99.90;;;;;;5062793;28;20045;-74
2023/05/22 05:37:23;;;;;;;13.32;10.98;;;18.00;99.90;;;;;;5056610;28;20041;-72
2023/05/22 05:39:48;;;;;;;15.77;11.18;;;18.00;99.90;;;;;;5057885;28;20025;-73
2023/05/22 05:42:16;;;;;;;17.90;11.45;;;18.00;99.90;;;;;;5062274;28;20086;-72
2023/05/22 05:44:41;;;;;;;14.63;10.77;;;18.00;99.90;;;;;;5060733;28;20104;-72
2023/05/22 05:47:07;;;;;;;15.90;10.60;;;18.10;99.90;;;;;;5061527;28;20029;-71
2023/05/22 05:49:33;;;;;;;16.35;11.07;;;18.10;99.90;;;;;;5062490;28;20096;-72
2023/05/22 05:51:58;;;;;;;16.17;11.00;;;18.20;99.90;;;;;;5061962;28;20043;-73
2023/05/22 05:54:25;;;;;;;13.75;10.75;;;18.20;99.90;;;;;;5062541;28;20033;-71
2023/05/22 05:56:51;;;;;;;14.90;10.80;;;18.20;99.90;;;;;;5060976;28;20029;-73
2023/05/22 05:59:17;;;;;;;14.43;10.93;;;18.20;99.90;;;;;;5062534;28;20029;-71
2023/05/22 06:01:44;;;;;;;13.25;10.52;;;18.40;99.90;;;;;;5058452;28;20108;-72
2023/05/22 06:04:11;;;;;;;14.57;10.85;;;18.40;99.90;;;;;;5062430;28;20096;-73
2023/05/22 06:06:38;;;;;;;13.85;10.40;;;18.50;99.90;;;;;;5062932;28;20047;-71
2023/05/22 06:09:07;;;;;;;14.52;10.85;;;18.50;99.90;;;;;;5059060;28;20037;-72
2023/05/22 06:11:33;;;;;;;16.90;11.00;;;18.50;99.90;;;;;;5060147;28;20036;-73
2023/05/22 06:14:02;;;;;;;15.15;10.60;;;18.60;99.90;;;;;;5059842;28;20025;-73
2023/05/22 06:16:28;;;;;;;14.63;10.95;;;18.60;99.90;;;;;;5061325;28;20037;-73
2023/05/22 06:18:56;;;;;;;13.88;10.55;;;18.60;99.90;;;;;;5061321;28;20028;-71
2023/05/22 06:21:23;;;;;;;16.75;10.68;;;18.60;99.90;;;;;;5059050;28;20431;-72
2023/05/22 06:23:48;;;;;;;19.13;10.18;;;18.60;99.90;;;;;;5061089;28;20037;-73
2023/05/22 06:26:15;;;;;;;16.77;10.13;;;18.70;99.90;;;;;;5060403;28;20040;-70
2023/05/22 06:28:41;;;;;;;11.90;9.85;;;18.70;99.90;;;;;;5060703;28;20056;-69
2023/05/22 06:31:08;;;;;;;13.93;10.07;;;18.70;99.90;;;;;;5060923;28;20466;-70
2023/05/22 06:33:34;;;;;;;15.38;10.43;;;18.70;99.90;;;;;;5059845;28;20025;-71
2023/05/22 06:35:59;;;;;;;13.82;10.52;;;18.80;99.90;;;;;;5060165;28;20100;-72
2023/05/22 06:38:25;;;;;;;19.95;10.90;;;18.80;99.90;;;;;;5057908;28;20029;-70
2023/05/22 06:40:51;;;;;;;13.82;10.07;;;18.90;99.90;;;;;;5060126;28;20020;-70
2023/05/22 06:43:17;;;;;;;17.08;10.60;;;18.90;99.90;;;;;;5050030;28;20501;-71
2023/05/22 06:45:43;;;;;;;13.30;9.48;;;19.00;99.90;;;;;;5056276;28;20418;-70
2023/05/22 06:48:10;;;;;;;17.25;10.15;;;19.10;99.90;;;;;;5059150;28;20033;-69
2023/05/22 06:50:35;;;;;;;12.50;8.63;;;19.20;99.90;;;;;;5060712;28;20091;-69
2023/05/22 06:53:01;;;;;;;11.90;9.40;;;19.30;99.90;;;;;;5059782;28;20462;-71
2023/05/22 06:55:27;;;;;;;14.30;9.85;;;19.40;99.90;;;;;;5061474;28;20045;-70
2023/05/22 06:57:52;;;;;;;12.82;9.35;;;19.60;99.90;;;;;;5060485;28;20048;-70
2023/05/22 07:00:19;;;;;;;13.73;9.45;;;19.60;99.90;;;;;;5059613;28;20052;-71
2023/05/22 07:02:44;;;;;;;14.05;9.48;;;19.60;99.90;;;;;;5061727;28;20025;-70
2023/05/22 07:05:17;;;;;;;13.05;9.20;;;19.70;99.90;;;;;;5061201;28;20029;-69
2023/05/22 07:07:43;;;;;;;19.63;9.65;;;19.70;99.90;;;;;;5060983;28;20525;-70
2023/05/22 07:10:09;;;;;;;13.73;10.02;;;19.70;99.90;;;;;;5061631;28;20021;-70
2023/05/22 07:12:35;;;;;;;12.32;9.23;;;19.60;99.90;;;;;;5060271;28;20024;-69
2023/05/22 07:15:01;;;;;;;14.75;9.07;;;19.60;99.90;;;;;;5061383;28;20045;-71
2023/05/22 07:17:26;;;;;;;18.15;9.75;;;19.70;99.90;;;;;;5061792;28;20406;-71
2023/05/22 07:19:55;;;;;;;12.05;9.32;;;19.70;99.90;;;;;;5061119;28;20035;-71
2023/05/22 07:22:21;;;;;;;13.85;9.77;;;19.70;99.90;;;;;;5059660;28;20155;-71
2023/05/22 07:24:46;;;;;;;15.65;10.07;;;19.70;99.90;;;;;;5060083;28;20028;-72
2023/05/22 07:27:12;;;;;;;12.05;9.75;;;19.70;99.90;;;;;;5060789;28;20360;-70
2023/05/22 07:29:43;;;;;;;16.38;10.00;;;19.80;99.90;;;;;;5060730;28;20029;-72
2023/05/22 07:32:09;;;;;;;14.85;9.48;;;19.80;99.90;;;;;;5058065;28;20033;-71
2023/05/22 07:34:34;;;;;;;12.15;9.57;;;19.80;99.90;;;;;;5058467;28;20421;-72
2023/05/22 07:37:06;;;;;;;11.93;9.35;;;19.80;99.90;;;;;;5057703;28;20053;-71
2023/05/22 07:39:32;;;;;;;14.43;9.57;;;19.80;99.90;;;;;;5059256;28;20021;-70
2023/05/22 07:41:57;;;;;;;15.13;9.70;;;19.80;99.90;;;;;;5061091;28;20085;-72
2023/05/22 07:44:23;;;;;;;12.95;8.90;;;19.70;99.90;;;;;;5059491;28;20035;-72
2023/05/22 07:46:48;;;;;;;14.13;9.60;;;19.70;99.90;;;;;;5059517;28;20021;-72
2023/05/22 07:49:18;;;;;;;13.02;9.65;;;19.60;99.90;;;;;;5061197;28;20029;-70
2023/05/22 07:51:44;;;;;;;15.65;9.30;;;19.60;99.90;;;;;;5061167;28;20037;-72
2023/05/22 07:54:10;;;;;;;12.27;9.68;;;19.60;99.90;;;;;;5057884;28;20027;-72
2023/05/22 07:56:39;;;;;;;14.05;9.70;;;19.60;99.90;;;;;;5058689;28;20096;-70
2023/05/22 07:59:06;;;;;;;12.45;9.82;;;19.60;99.90;;;;;;5058832;28;20051;-70
2023/05/22 08:01:32;;;;;;;10.63;9.18;;;19.60;99.90;;;;;;5057896;28;20822;-73
2023/05/22 08:03:57;;;;;;;11.23;8.70;;;19.60;99.90;;;;;;5059258;28;20541;-74
2023/05/22 08:06:23;;;;;;;11.57;9.40;;;19.60;99.90;;;;;;5058900;28;20108;-71
2023/05/22 08:08:51;;;;;;;13.00;9.73;;;19.50;99.90;;;;;;5054108;28;20489;-73
2023/05/22 08:11:17;;;;;;;14.73;9.98;;;19.60;99.90;;;;;;5056581;28;20040;-72
2023/05/22 08:13:43;;;;;;;12.55;9.02;;;19.50;99.90;;;;;;5052197;28;20025;-73
2023/05/22 08:16:09;;;;;;;16.25;8.85;;;19.50;99.90;;;;;;5053279;28;20072;-72
2023/05/22 08:18:35;;;;;;;13.43;9.48;;;19.50;99.90;;;;;;5059847;28;20025;-71
2023/05/22 08:21:01;;;;;;;14.13;9.68;;;19.40;99.90;;;;;;5060307;28;20044;-71
2023/05/22 08:23:26;;;;;;;15.38;10.00;;;19.40;99.90;;;;;;5060703;28;20033;-71
2023/05/22 08:25:52;;;;;;;14.73;9.57;;;19.50;99.90;;;;;;5060405;28;20029;-73
2023/05/22 08:28:18;;;;;;;11.00;9.52;;;19.40;99.90;;;;;;5057962;28;20031;-71
2023/05/22 08:30:44;;;;;;;12.93;9.68;;;19.50;99.90;;;;;;5060511;28;20096;-71
2023/05/22 08:33:10;;;;;;;13.50;9.93;;;19.40;99.90;;;;;;5061597;28;20092;-71
2023/05/22 08:35:36;;;;;;;14.85;10.52;;;19.40;99.90;;;;;;5060498;28;20037;-71
2023/05/22 08:38:01;;;;;;;15.98;10.93;;;19.40;99.90;;;;;;5060546;28;20051;-71
2023/05/22 08:40:35;;;;;;;20.90;12.38;;;19.40;99.90;;;;;;5061291;28;20036;-71
2023/05/22 08:43:01;;;;;;;16.73;11.98;;;19.40;99.90;;;;;;5060128;28;20033;-71
2023/05/22 08:45:28;;;;;;;17.67;12.48;;;19.30;99.90;;;;;;5061321;28;20553;-73
2023/05/22 08:47:54;;;;;;;19.05;12.68;;;19.30;99.90;;;;;;5063766;28;20108;-71
2023/05/22 08:50:20;;;;;;;17.35;13.00;;;19.20;99.90;;;;;;5058792;28;20076;-72
2023/05/22 08:52:50;;;;;;;17.00;12.23;;;19.20;99.90;;;;;;5061581;28;20094;-71
2023/05/22 08:55:18;;;;;;;15.05;12.50;;;19.10;99.90;;;;;;5061210;28;20063;-71
2023/05/22 08:57:46;;;;;;;22.23;12.75;;;19.00;99.90;;;;;;5060357;28;20056;-72
2023/05/22 09:00:12;;;;;;;16.48;12.15;;;19.00;99.90;;;;;;5060510;28;20047;-71
2023/05/22 09:02:38;;;;;;;23.40;13.63;;;18.90;99.90;;;;;;5061484;28;20037;-71
2023/05/22 09:05:08;;;;;;;19.92;12.93;;;18.90;99.90;;;;;;5061973;28;20028;-71
2023/05/22 09:07:34;;;;;;;17.13;12.20;;;18.90;99.90;;;;;;5062385;28;20043;-71
2023/05/22 09:10:03;;;;;;;22.58;13.32;;;18.90;99.90;;;;;;5063755;28;20028;-73
2023/05/22 09:12:30;;;;;;;16.58;13.18;;;18.90;99.90;;;;;;5062046;28;20413;-71
2023/05/22 09:14:57;;;;;;;22.55;13.98;;;18.90;99.90;;;;;;5062470;28;20410;-72
2023/05/22 09:17:25;;;;;;;18.02;13.30;;;18.90;99.90;;;;;;5061868;28;20036;-72
2023/05/22 09:19:50;;;;;;;16.35;12.88;;;19.00;99.90;;;;;;5062284;28;20025;-71
2023/05/22 09:22:16;;;;;;;16.40;12.13;;;19.00;99.90;;;;;;5062840;28;20033;-71
2023/05/22 09:24:43;;;;;;;17.90;13.32;;;19.10;99.90;;;;;;5063172;28;20032;-71
2023/05/22 09:27:10;;;;;;;20.48;13.27;;;19.10;99.90;;;;;;5061723;28;20024;-72
2023/05/22 09:29:55;;;;;;;15.80;12.30;;;19.20;99.90;;;;;;5061019;28;20154;-71
2023/05/22 09:32:21;;;;;;;21.83;13.55;;;19.20;99.90;;;;;;5061500;28;20037;-72
2023/05/22 09:34:47;;;;;;;15.32;11.73;;;19.20;99.90;;;;;;5061906;28;20409;-72
2023/05/22 09:37:13;;;;;;;19.80;12.52;;;19.20;99.90;;;;;;5062881;28;20021;-71
2023/05/22 09:39:41;;;;;;;14.63;12.82;;;19.30;99.90;;;;;;5060908;28;20029;-71
2023/05/22 09:42:09;;;;;;;19.30;13.02;;;19.30;99.90;;;;;;5062497;28;20025;-71
2023/05/22 09:44:34;;;;;;;15.63;12.43;;;19.30;99.90;;;;;;5060850;28;20036;-72
2023/05/22 09:47:01;;;;;;;20.20;12.63;;;19.40;99.90;;;;;;5058633;28;20029;-72
2023/05/22 09:49:27;;;;;;;15.23;12.30;;;19.40;99.90;;;;;;5061012;28;20075;-72
2023/05/22 09:51:54;;;;;;;18.05;11.68;;;19.50;99.90;;;;;;5056994;28;20681;-72
2023/05/22 09:54:21;;;;;;;17.65;11.40;;;19.60;99.90;;;;;;5054975;28;20035;-72
2023/05/22 09:56:49;;;;;;;16.48;11.20;;;19.50;99.90;;;;;;5062143;28;20036;-71
2023/05/22 09:59:21;;;;;;;17.73;11.77;;;19.60;99.90;;;;;;5062495;28;20029;-71
2023/05/22 10:01:49;;;;;;;16.58;12.10;;;19.70;99.90;;;;;;5058997;28;20065;-72
2023/05/22 10:04:17;;;;;;;14.80;11.10;;;19.80;99.90;;;;;;5061348;28;20052;-72
2023/05/22 10:06:49;;;;;;;15.43;11.60;;;19.80;99.90;;;;;;5060070;28;20059;-72
2023/05/22 10:09:16;;;;;;;13.85;11.35;;;20.00;99.90;;;;;;5061142;28;20016;-72
2023/05/22 10:11:42;;;;;;;19.23;11.68;;;20.00;99.90;;;;;;5058814;28;20025;-71
2023/05/22 10:14:08;;;;;;;21.35;11.13;;;20.10;99.90;;;;;;5061548;28;20020;-71
2023/05/22 10:16:37;;;;;;;17.92;11.68;;;20.20;99.90;;;;;;5059830;28;20090;-72
2023/05/22 10:19:02;;;;;;;17.45;11.80;;;20.30;99.90;;;;;;5060940;28;20021;-73
2023/05/22 10:21:30;;;;;;;16.60;12.15;;;20.30;99.90;;;;;;5055451;28;20030;-73
2023/05/22 10:23:58;;;;;;;17.88;11.98;;;20.30;99.90;;;;;;5056095;28;20036;-72
2023/05/22 10:26:24;;;;;;;21.13;11.18;;;20.40;99.90;;;;;;5060922;28;20041;-72
2023/05/22 10:29:03;;;;;;;17.15;11.90;;;20.40;99.90;;;;;;5061161;28;20021;-70
2023/05/22 10:31:43;;;;;;;16.42;11.30;;;20.50;99.90;;;;;;5060087;28;20035;-72
2023/05/22 10:34:21;;;;;;;14.82;11.50;;;20.50;99.90;;;;;;5059467;28;20033;-72
2023/05/22 10:37:04;;;;;;;13.27;10.75;;;20.60;99.90;;;;;;5061370;28;20081;-71
2023/05/22 10:39:47;;;;;;;17.42;10.93;;;20.70;99.90;;;;;;5061372;28;20112;-72
2023/05/22 10:42:14;;;;;;;17.73;11.30;;;20.70;99.90;;;;;;5059578;28;20033;-71
2023/05/22 10:44:40;;;;;;;15.25;10.15;;;20.80;99.90;;;;;;5057960;28;20093;-71
2023/05/22 10:47:12;;;;;;;13.77;10.20;;;20.90;99.90;;;;;;5057735;28;20406;-72
2023/05/22 10:49:43;;;;;;;19.80;11.07;;;21.00;99.90;;;;;;5056000;28;20052;-71
2023/05/22 10:52:09;;;;;;;13.32;9.48;;;21.10;99.90;;;;;;5053062;28;20028;-72
2023/05/22 10:54:45;;;;;;;15.95;10.60;;;21.00;99.90;;;;;;5058012;28;20040;-71
2023/05/22 10:57:15;;;;;;;16.85;11.07;;;21.00;99.90;;;;;;5059564;28;20039;-71
2023/05/22 10:59:41;;;;;;;17.58;11.20;;;21.10;99.90;;;;;;5061854;28;20082;-71
2023/05/22 11:02:24;;;;;;;18.45;12.98;;;21.00;99.90;;;;;;5060067;28;20032;-72
2023/05/22 11:04:49;;;;;;;20.25;13.95;;;21.00;99.90;;;;;;5059189;28;20663;-69
2023/05/22 11:07:15;;;;;;;21.63;14.50;;;21.00;99.90;;;;;;5060619;28;20052;-73
2023/05/22 11:09:46;;;;;;;18.65;13.88;;;20.90;99.90;;;;;;5055154;28;20025;-72
2023/05/22 11:12:20;;;;;;;22.27;14.15;;;20.80;99.90;;;;;;5056175;28;20009;-69
2023/05/22 11:14:58;;;;;;;21.00;14.83;;;20.90;99.90;;;;;;5060774;28;20044;-71
2023/05/22 11:17:29;;;;;;;21.38;15.77;;;20.80;99.90;;;;;;5060176;28;20021;-74
2023/05/22 11:20:05;;;;;;;21.70;15.25;;;20.80;99.90;;;;;;5060212;28;20039;-72
2023/05/22 11:22:41;;;;;;;20.08;16.35;;;20.80;99.90;;;;;;5058226;28;20102;-74
2023/05/22 11:25:09;;;;;;;23.20;16.63;;;20.70;99.90;;;;;;5057678;28;20827;-72
2023/05/22 11:27:37;;;;;;;23.38;17.42;;;20.70;99.90;;;;;;5057661;28;20024;-71
2023/05/22 11:30:03;;;;;;;23.80;17.15;;;20.60;99.90;;;;;;5060851;28;20051;-72
2023/05/22 11:32:29;;;;;;;27.58;17.58;;;20.60;99.90;;;;;;5058499;28;20028;-72
2023/05/22 11:34:56;;;;;;;22.33;16.83;;;20.60;99.90;;;;;;5060299;28;20474;-72
2023/05/22 11:37:22;;;;;;;21.48;16.25;;;20.60;99.90;;;;;;5060204;28;20021;-70
2023/05/22 11:39:51;;;;;;;22.90;17.35;;;20.60;99.90;;;;;;5058969;28;20032;-69
2023/05/22 11:42:18;;;;;;;24.33;17.60;;;20.60;99.90;;;;;;5059500;28;20040;-72
2023/05/22 11:44:43;;;;;;;22.02;16.98;;;20.60;99.90;;;;;;5059568;28;20017;-73
2023/05/22 11:47:09;;;;;;;24.08;17.95;;;20.60;99.90;;;;;;5059894;28;20052;-72
2023/05/22 11:49:35;;;;;;;23.83;17.15;;;20.60;99.90;;;;;;5061420;28;20033;-71
2023/05/22 11:52:00;;;;;;;25.33;18.33;;;20.50;99.90;;;;;;5060250;28;20040;-71
2023/05/22 11:54:31;;;;;;;30.00;17.90;;;20.60;99.90;;;;;;5061807;28;20028;-73
2023/05/22 11:56:57;;;;;;;26.73;17.90;;;20.60;99.90;;;;;;5060768;28;20041;-72
2023/05/22 11:59:22;;;;;;;25.15;17.63;;;20.60;99.90;;;;;;5060361;28;20035;-71
2023/05/22 12:01:49;;;;;;;26.55;17.38;;;20.50;99.90;;;;;;5056798;28;20388;-72
2023/05/22 12:04:15;;;;;;;25.23;17.00;;;20.50;99.90;;;;;;5055267;28;20048;-72
2023/05/22 12:06:41;;;;;;;28.27;17.33;;;20.40;99.90;;;;;;5058533;28;20033;-71
2023/05/22 12:09:07;;;;;;;21.13;16.85;;;20.40;99.90;;;;;;5061329;28;20496;-70
2023/05/22 12:11:36;;;;;;;26.48;17.60;;;20.40;99.90;;;;;;5065161;28;20024;-72
2023/05/22 12:14:03;;;;;;;26.08;17.38;;;20.40;99.90;;;;;;5060900;28;20043;-72
2023/05/22 12:16:35;;;;;;;23.33;16.30;;;20.30;99.90;;;;;;5063876;28;20044;-74
2023/05/22 12:19:07;;;;;;;26.70;18.80;;;20.30;99.90;;;;;;5063658;28;20013;-72
2023/05/22 12:21:32;;;;;;;33.08;18.55;;;20.30;99.90;;;;;;5063189;28;20034;-71
2023/05/22 12:24:03;;;;;;;24.05;18.27;;;20.20;99.90;;;;;;5062736;28;20029;-72
2023/05/22 12:26:29;;;;;;;27.38;18.30;;;20.20;99.90;;;;;;5061247;28;20033;-71
2023/05/22 12:28:56;;;;;;;24.95;17.88;;;20.20;99.90;;;;;;5060673;28;20428;-70
2023/05/22 12:31:22;;;;;;;23.98;16.63;;;20.20;99.90;;;;;;5061567;28;20021;-70